sensor_id;sensor_type;location;lat;lon;timestamp;P1;durP1;ratioP1;P2;durP2;ratioP2
62554;SDS011;48610;52.144;8.624;2023-06-26T00:13:19;12.02;;;7.88;;
62554;SDS011;48610;52.144;8.624;2023-06-26T00:16:20;11.32;;;8.13;;
62554;SDS011;48610;52.144;8.624;2023-06-26T00:19:20;13.27;;;8.20;;
62554;SDS011;48610;52.144;8.624;2023-06-26T00:22:21;11.38;;;8.10;;
62554;SDS011;48610;52.144;8.624;2023-06-26T00:25:21;13.57;;;7.68;;
62554;SDS011;48610;52.144;8.624;2023-06-26T00:28:22;11.88;;;8.23;;
62554;SDS011;48610;52.144;8.624;2023-06-26T00:31:23;9.25;;;7.60;;
62554;SDS011;48610;52.144;8.624;2023-06-26T00:34:23;10.38;;;7.15;;
62554;SDS011;48610;52.144;8.624;2023-06-26T00:37:24;10.63;;;7.68;;
62554;SDS011;48610;52.144;8.624;2023-06-26T00:40:24;13.43;;;8.23;;
62554;SDS011;48610;52.144;8.624;2023-06-26T00:43:26;10.40;;;7.50;;
62554;SDS011;48610;52.144;8.624;2023-06-26T00:46:27;12.60;;;8.02;;
62554;SDS011;48610;52.144;8.624;2023-06-26T00:49:28;11.20;;;7.97;;
62554;SDS011;48610;52.144;8.624;2023-06-26T00:52:28;10.73;;;7.32;;
62554;SDS011;48610;52.144;8.624;2023-06-26T00:55:29;11.13;;;7.45;;
62554;SDS011;48610;52.144;8.624;2023-06-26T00:58:30;12.05;;;7.90;;
62554;SDS011;48610;52.144;8.624;2023-06-26T01:01:31;10.50;;;7.55;;
62554;SDS011;48610;52.144;8.624;2023-06-26T01:04:32;10.35;;;7.20;;
62554;SDS011;48610;52.144;8.624;2023-06-26T01:07:33;11.32;;;7.82;;
62554;SDS011;48610;52.144;8.624;2023-06-26T01:10:36;13.20;;;7.65;;
62554;SDS011;48610;52.144;8.624;2023-06-26T01:13:36;10.82;;;7.50;;
62554;SDS011;48610;52.144;8.624;2023-06-26T01:16:38;11.27;;;7.68;;
62554;SDS011;48610;52.144;8.624;2023-06-26T01:19:40;13.45;;;8.05;;
62554;SDS011;48610;52.144;8.624;2023-06-26T01:22:47;12.68;;;8.05;;
62554;SDS011;48610;52.144;8.624;2023-06-26T01:26:09;18.77;;;8.07;;
62554;SDS011;48610;52.144;8.624;2023-06-26T01:29:15;11.10;;;7.55;;
62554;SDS011;48610;52.144;8.624;2023-06-26T01:32:18;11.77;;;8.32;;
62554;SDS011;48610;52.144;8.624;2023-06-26T01:35:19;12.27;;;7.95;;
62554;SDS011;48610;52.144;8.624;2023-06-26T01:38:20;12.02;;;7.65;;
62554;SDS011;48610;52.144;8.624;2023-06-26T01:41:23;11.48;;;7.32;;
62554;SDS011;48610;52.144;8.624;2023-06-26T01:44:28;13.13;;;8.20;;
62554;SDS011;48610;52.144;8.624;2023-06-26T01:47:30;14.35;;;7.97;;
62554;SDS011;48610;52.144;8.624;2023-06-26T01:50:34;12.82;;;7.38;;
62554;SDS011;48610;52.144;8.624;2023-06-26T01:53:38;12.90;;;7.50;;
62554;SDS011;48610;52.144;8.624;2023-06-26T01:56:41;10.85;;;7.88;;
62554;SDS011;48610;52.144;8.624;2023-06-26T01:59:46;10.63;;;7.40;;
62554;SDS011;48610;52.144;8.624;2023-06-26T02:02:47;10.13;;;7.18;;
62554;SDS011;48610;52.144;8.624;2023-06-26T02:05:47;13.70;;;7.90;;
62554;SDS011;48610;52.144;8.624;2023-06-26T02:08:48;12.57;;;8.43;;
62554;SDS011;48610;52.144;8.624;2023-06-26T02:11:49;13.68;;;7.72;;
62554;SDS011;48610;52.144;8.624;2023-06-26T02:14:49;15.88;;;8.00;;
62554;SDS011;48610;52.144;8.624;2023-06-26T02:17:51;10.68;;;8.10;;
62554;SDS011;48610;52.144;8.624;2023-06-26T02:20:51;15.18;;;8.20;;
62554;SDS011;48610;52.144;8.624;2023-06-26T02:23:52;13.55;;;8.00;;
62554;SDS011;48610;52.144;8.624;2023-06-26T02:26:52;11.60;;;7.72;;
62554;SDS011;48610;52.144;8.624;2023-06-26T02:29:53;14.65;;;7.78;;
62554;SDS011;48610;52.144;8.624;2023-06-26T02:32:53;12.10;;;7.90;;
62554;SDS011;48610;52.144;8.624;2023-06-26T02:35:54;10.68;;;6.95;;
62554;SDS011;48610;52.144;8.624;2023-06-26T02:38:55;12.57;;;7.47;;
62554;SDS011;48610;52.144;8.624;2023-06-26T02:41:55;12.57;;;7.78;;
62554;SDS011;48610;52.144;8.624;2023-06-26T02:44:56;13.50;;;7.35;;
62554;SDS011;48610;52.144;8.624;2023-06-26T02:47:57;16.17;;;8.15;;
62554;SDS011;48610;52.144;8.624;2023-06-26T02:50:58;12.93;;;7.55;;
62554;SDS011;48610;52.144;8.624;2023-06-26T02:53:59;10.57;;;7.55;;
62554;SDS011;48610;52.144;8.624;2023-06-26T02:57:00;12.98;;;7.35;;
62554;SDS011;48610;52.144;8.624;2023-06-26T03:00:01;11.85;;;7.18;;
62554;SDS011;48610;52.144;8.624;2023-06-26T03:03:03;9.70;;;7.13;;
62554;SDS011;48610;52.144;8.624;2023-06-26T03:06:03;13.15;;;7.55;;
62554;SDS011;48610;52.144;8.624;2023-06-26T03:09:04;12.65;;;7.47;;
62554;SDS011;48610;52.144;8.624;2023-06-26T03:12:05;12.43;;;7.68;;
62554;SDS011;48610;52.144;8.624;2023-06-26T03:15:06;10.27;;;7.75;;
62554;SDS011;48610;52.144;8.624;2023-06-26T03:18:07;10.13;;;6.97;;
62554;SDS011;48610;52.144;8.624;2023-06-26T03:21:09;12.02;;;7.68;;
62554;SDS011;48610;52.144;8.624;2023-06-26T03:24:10;12.65;;;7.55;;
62554;SDS011;48610;52.144;8.624;2023-06-26T03:27:10;12.23;;;7.93;;
62554;SDS011;48610;52.144;8.624;2023-06-26T03:30:12;13.00;;;7.93;;
62554;SDS011;48610;52.144;8.624;2023-06-26T03:33:12;13.20;;;7.18;;
62554;SDS011;48610;52.144;8.624;2023-06-26T03:36:13;15.75;;;7.45;;
62554;SDS011;48610;52.144;8.624;2023-06-26T03:39:13;9.43;;;7.15;;
62554;SDS011;48610;52.144;8.624;2023-06-26T03:42:14;9.95;;;7.50;;
62554;SDS011;48610;52.144;8.624;2023-06-26T03:45:15;11.93;;;7.90;;
62554;SDS011;48610;52.144;8.624;2023-06-26T03:48:15;13.68;;;7.10;;
62554;SDS011;48610;52.144;8.624;2023-06-26T03:51:16;10.95;;;7.32;;
62554;SDS011;48610;52.144;8.624;2023-06-26T03:54:16;14.95;;;6.50;;
62554;SDS011;48610;52.144;8.624;2023-06-26T03:57:17;10.70;;;7.10;;
62554;SDS011;48610;52.144;8.624;2023-06-26T04:00:18;12.65;;;7.05;;
62554;SDS011;48610;52.144;8.624;2023-06-26T04:03:18;11.20;;;6.90;;
62554;SDS011;48610;52.144;8.624;2023-06-26T04:06:19;14.32;;;7.22;;
62554;SDS011;48610;52.144;8.624;2023-06-26T04:09:19;10.25;;;7.22;;
62554;SDS011;48610;52.144;8.624;2023-06-26T04:12:20;17.67;;;7.38;;
62554;SDS011;48610;52.144;8.624;2023-06-26T04:15:21;13.25;;;7.07;;
62554;SDS011;48610;52.144;8.624;2023-06-26T04:18:21;12.93;;;7.20;;
62554;SDS011;48610;52.144;8.624;2023-06-26T04:21:22;12.07;;;7.72;;
62554;SDS011;48610;52.144;8.624;2023-06-26T04:24:24;15.68;;;7.70;;
62554;SDS011;48610;52.144;8.624;2023-06-26T04:27:25;11.27;;;7.20;;
62554;SDS011;48610;52.144;8.624;2023-06-26T04:30:25;10.85;;;7.10;;
62554;SDS011;48610;52.144;8.624;2023-06-26T04:33:26;11.60;;;7.53;;
62554;SDS011;48610;52.144;8.624;2023-06-26T04:36:27;11.52;;;6.90;;
62554;SDS011;48610;52.144;8.624;2023-06-26T04:39:28;12.02;;;6.93;;
62554;SDS011;48610;52.144;8.624;2023-06-26T04:42:29;13.00;;;6.90;;
62554;SDS011;48610;52.144;8.624;2023-06-26T04:45:29;15.77;;;7.65;;
62554;SDS011;48610;52.144;8.624;2023-06-26T04:48:30;10.07;;;7.20;;
62554;SDS011;48610;52.144;8.624;2023-06-26T04:51:31;14.85;;;7.22;;
62554;SDS011;48610;52.144;8.624;2023-06-26T04:54:32;16.50;;;7.53;;
62554;SDS011;48610;52.144;8.624;2023-06-26T04:57:32;15.65;;;7.43;;
62554;SDS011;48610;52.144;8.624;2023-06-26T05:00:33;13.98;;;7.53;;
62554;SDS011;48610;52.144;8.624;2023-06-26T05:03:35;11.63;;;7.15;;
62554;SDS011;48610;52.144;8.624;2023-06-26T05:06:37;12.70;;;7.32;;
62554;SDS011;48610;52.144;8.624;2023-06-26T05:09:37;8.77;;;6.75;;
62554;SDS011;48610;52.144;8.624;2023-06-26T05:12:38;19.58;;;7.55;;
62554;SDS011;48610;52.144;8.624;2023-06-26T05:15:38;11.45;;;7.30;;
62554;SDS011;48610;52.144;8.624;2023-06-26T05:18:39;11.48;;;7.05;;
62554;SDS011;48610;52.144;8.624;2023-06-26T05:21:39;16.10;;;7.53;;
62554;SDS011;48610;52.144;8.624;2023-06-26T05:24:40;10.35;;;7.22;;
62554;SDS011;48610;52.144;8.624;2023-06-26T05:27:42;13.05;;;7.03;;
62554;SDS011;48610;52.144;8.624;2023-06-26T05:30:43;11.45;;;7.30;;
62554;SDS011;48610;52.144;8.624;2023-06-26T05:33:44;10.27;;;7.03;;
62554;SDS011;48610;52.144;8.624;2023-06-26T05:36:45;11.38;;;6.72;;
62554;SDS011;48610;52.144;8.624;2023-06-26T05:39:50;16.65;;;7.15;;
62554;SDS011;48610;52.144;8.624;2023-06-26T05:42:50;13.13;;;6.90;;
62554;SDS011;48610;52.144;8.624;2023-06-26T05:45:51;12.98;;;7.25;;
62554;SDS011;48610;52.144;8.624;2023-06-26T05:48:52;14.82;;;7.15;;
62554;SDS011;48610;52.144;8.624;2023-06-26T05:51:52;14.45;;;6.80;;
62554;SDS011;48610;52.144;8.624;2023-06-26T05:54:53;11.25;;;6.68;;
62554;SDS011;48610;52.144;8.624;2023-06-26T05:57:54;12.35;;;6.28;;
62554;SDS011;48610;52.144;8.624;2023-06-26T06:00:57;11.27;;;6.22;;
62554;SDS011;48610;52.144;8.624;2023-06-26T06:03:58;14.10;;;6.25;;
62554;SDS011;48610;52.144;8.624;2023-06-26T06:06:59;12.48;;;6.55;;
62554;SDS011;48610;52.144;8.624;2023-06-26T06:09:59;10.27;;;6.50;;
62554;SDS011;48610;52.144;8.624;2023-06-26T06:13:00;17.98;;;7.13;;
62554;SDS011;48610;52.144;8.624;2023-06-26T06:16:01;14.75;;;6.82;;
62554;SDS011;48610;52.144;8.624;2023-06-26T06:19:01;10.85;;;7.03;;
62554;SDS011;48610;52.144;8.624;2023-06-26T06:22:03;9.13;;;6.72;;
62554;SDS011;48610;52.144;8.624;2023-06-26T06:25:04;13.95;;;7.55;;
62554;SDS011;48610;52.144;8.624;2023-06-26T06:28:05;10.73;;;7.22;;
62554;SDS011;48610;52.144;8.624;2023-06-26T06:31:05;13.65;;;7.38;;
62554;SDS011;48610;52.144;8.624;2023-06-26T06:34:06;14.05;;;7.90;;
62554;SDS011;48610;52.144;8.624;2023-06-26T06:37:06;12.18;;;7.60;;
62554;SDS011;48610;52.144;8.624;2023-06-26T06:40:08;11.50;;;7.95;;
62554;SDS011;48610;52.144;8.624;2023-06-26T06:43:10;14.18;;;7.53;;
62554;SDS011;48610;52.144;8.624;2023-06-26T06:46:10;11.40;;;7.55;;
62554;SDS011;48610;52.144;8.624;2023-06-26T06:49:11;12.40;;;7.45;;
62554;SDS011;48610;52.144;8.624;2023-06-26T06:52:11;13.38;;;8.02;;
62554;SDS011;48610;52.144;8.624;2023-06-26T06:55:12;13.27;;;8.07;;
62554;SDS011;48610;52.144;8.624;2023-06-26T06:58:13;17.25;;;7.57;;
62554;SDS011;48610;52.144;8.624;2023-06-26T07:01:13;16.05;;;9.18;;
62554;SDS011;48610;52.144;8.624;2023-06-26T07:04:14;12.38;;;8.20;;
62554;SDS011;48610;52.144;8.624;2023-06-26T07:07:17;12.48;;;8.60;;
62554;SDS011;48610;52.144;8.624;2023-06-26T07:10:18;14.13;;;7.70;;
62554;SDS011;48610;52.144;8.624;2023-06-26T07:13:19;15.02;;;8.75;;
62554;SDS011;48610;52.144;8.624;2023-06-26T07:16:20;18.52;;;9.00;;
62554;SDS011;48610;52.144;8.624;2023-06-26T07:19:20;15.13;;;9.25;;
62554;SDS011;48610;52.144;8.624;2023-06-26T07:22:21;12.23;;;8.02;;
62554;SDS011;48610;52.144;8.624;2023-06-26T07:25:22;18.02;;;8.18;;
62554;SDS011;48610;52.144;8.624;2023-06-26T07:28:22;14.10;;;8.38;;
62554;SDS011;48610;52.144;8.624;2023-06-26T07:31:23;15.00;;;9.32;;
62554;SDS011;48610;52.144;8.624;2023-06-26T07:34:24;12.57;;;8.63;;
62554;SDS011;48610;52.144;8.624;2023-06-26T07:37:24;14.73;;;8.13;;
62554;SDS011;48610;52.144;8.624;2023-06-26T07:40:26;14.80;;;8.90;;
62554;SDS011;48610;52.144;8.624;2023-06-26T07:43:27;10.77;;;7.70;;
62554;SDS011;48610;52.144;8.624;2023-06-26T07:46:27;12.43;;;8.30;;
62554;SDS011;48610;52.144;8.624;2023-06-26T07:49:28;20.42;;;8.20;;
62554;SDS011;48610;52.144;8.624;2023-06-26T07:52:28;14.43;;;8.88;;
62554;SDS011;48610;52.144;8.624;2023-06-26T07:55:30;12.45;;;8.30;;
62554;SDS011;48610;52.144;8.624;2023-06-26T07:58:31;16.35;;;8.70;;
62554;SDS011;48610;52.144;8.624;2023-06-26T08:01:31;15.25;;;8.82;;
62554;SDS011;48610;52.144;8.624;2023-06-26T08:04:32;14.95;;;8.77;;
62554;SDS011;48610;52.144;8.624;2023-06-26T08:07:33;17.55;;;9.00;;
62554;SDS011;48610;52.144;8.624;2023-06-26T08:10:34;15.73;;;8.93;;
62554;SDS011;48610;52.144;8.624;2023-06-26T08:13:34;14.57;;;7.70;;
62554;SDS011;48610;52.144;8.624;2023-06-26T08:16:35;12.35;;;8.63;;
62554;SDS011;48610;52.144;8.624;2023-06-26T08:19:35;12.98;;;8.48;;
62554;SDS011;48610;52.144;8.624;2023-06-26T08:22:36;17.52;;;8.75;;
62554;SDS011;48610;52.144;8.624;2023-06-26T08:25:37;17.35;;;9.27;;
62554;SDS011;48610;52.144;8.624;2023-06-26T08:28:37;24.20;;;9.95;;
62554;SDS011;48610;52.144;8.624;2023-06-26T08:31:38;14.57;;;8.68;;
62554;SDS011;48610;52.144;8.624;2023-06-26T08:34:39;16.88;;;8.98;;
62554;SDS011;48610;52.144;8.624;2023-06-26T08:37:40;16.98;;;8.60;;
62554;SDS011;48610;52.144;8.624;2023-06-26T08:40:40;17.00;;;8.38;;
62554;SDS011;48610;52.144;8.624;2023-06-26T08:43:41;16.95;;;8.90;;
62554;SDS011;48610;52.144;8.624;2023-06-26T08:46:42;17.63;;;8.50;;
62554;SDS011;48610;52.144;8.624;2023-06-26T08:49:46;18.15;;;8.43;;
62554;SDS011;48610;52.144;8.624;2023-06-26T08:56:04;18.70;;;7.95;;
62554;SDS011;48610;52.144;8.624;2023-06-26T08:59:07;11.30;;;7.43;;
62554;SDS011;48610;52.144;8.624;2023-06-26T09:02:10;13.40;;;6.90;;
62554;SDS011;48610;52.144;8.624;2023-06-26T09:05:11;13.60;;;8.02;;
62554;SDS011;48610;52.144;8.624;2023-06-26T09:08:12;13.63;;;7.82;;
62554;SDS011;48610;52.144;8.624;2023-06-26T09:11:13;19.52;;;7.72;;
62554;SDS011;48610;52.144;8.624;2023-06-26T09:14:14;17.23;;;7.60;;
62554;SDS011;48610;52.144;8.624;2023-06-26T09:17:14;15.98;;;7.45;;
62554;SDS011;48610;52.144;8.624;2023-06-26T09:20:15;12.43;;;7.05;;
62554;SDS011;48610;52.144;8.624;2023-06-26T09:23:16;14.32;;;6.85;;
62554;SDS011;48610;52.144;8.624;2023-06-26T09:26:17;14.05;;;6.32;;
62554;SDS011;48610;52.144;8.624;2023-06-26T09:29:17;15.88;;;6.65;;
62554;SDS011;48610;52.144;8.624;2023-06-26T09:32:19;8.32;;;6.05;;
62554;SDS011;48610;52.144;8.624;2023-06-26T09:35:20;12.30;;;6.65;;
62554;SDS011;48610;52.144;8.624;2023-06-26T09:38:20;12.00;;;6.50;;
62554;SDS011;48610;52.144;8.624;2023-06-26T09:41:21;12.38;;;5.90;;
62554;SDS011;48610;52.144;8.624;2023-06-26T09:44:22;14.50;;;5.55;;
62554;SDS011;48610;52.144;8.624;2023-06-26T09:47:23;13.10;;;5.93;;
62554;SDS011;48610;52.144;8.624;2023-06-26T09:50:24;9.90;;;6.13;;
62554;SDS011;48610;52.144;8.624;2023-06-26T09:53:27;10.88;;;5.97;;
62554;SDS011;48610;52.144;8.624;2023-06-26T09:56:28;12.77;;;5.60;;
62554;SDS011;48610;52.144;8.624;2023-06-26T09:59:29;11.50;;;5.13;;
62554;SDS011;48610;52.144;8.624;2023-06-26T10:02:30;9.43;;;5.57;;
62554;SDS011;48610;52.144;8.624;2023-06-26T10:05:30;16.25;;;5.60;;
62554;SDS011;48610;52.144;8.624;2023-06-26T10:08:31;12.35;;;5.93;;
62554;SDS011;48610;52.144;8.624;2023-06-26T10:11:41;11.27;;;5.53;;
62554;SDS011;48610;52.144;8.624;2023-06-26T10:15:01;11.55;;;5.57;;
62554;SDS011;48610;52.144;8.624;2023-06-26T10:18:04;14.85;;;5.78;;
62554;SDS011;48610;52.144;8.624;2023-06-26T10:21:06;14.20;;;5.65;;
62554;SDS011;48610;52.144;8.624;2023-06-26T10:24:07;8.93;;;5.15;;
62554;SDS011;48610;52.144;8.624;2023-06-26T10:27:17;14.23;;;5.75;;
62554;SDS011;48610;52.144;8.624;2023-06-26T10:30:24;9.68;;;5.47;;
62554;SDS011;48610;52.144;8.624;2023-06-26T10:33:27;16.83;;;5.72;;
62554;SDS011;48610;52.144;8.624;2023-06-26T10:36:30;10.77;;;5.32;;
62554;SDS011;48610;52.144;8.624;2023-06-26T10:39:51;15.27;;;5.90;;
62554;SDS011;48610;52.144;8.624;2023-06-26T10:43:07;10.02;;;4.93;;
62554;SDS011;48610;52.144;8.624;2023-06-26T10:46:09;12.33;;;5.10;;
62554;SDS011;48610;52.144;8.624;2023-06-26T10:49:10;10.15;;;4.95;;
62554;SDS011;48610;52.144;8.624;2023-06-26T10:52:12;10.60;;;5.10;;
62554;SDS011;48610;52.144;8.624;2023-06-26T10:55:13;6.63;;;4.63;;
62554;SDS011;48610;52.144;8.624;2023-06-26T11:01:30;8.85;;;5.25;;
62554;SDS011;48610;52.144;8.624;2023-06-26T11:04:47;11.32;;;4.50;;
62554;SDS011;48610;52.144;8.624;2023-06-26T11:08:08;5.75;;;3.90;;
62554;SDS011;48610;52.144;8.624;2023-06-26T11:11:11;6.38;;;3.80;;
62554;SDS011;48610;52.144;8.624;2023-06-26T11:14:11;9.57;;;4.00;;
62554;SDS011;48610;52.144;8.624;2023-06-26T11:17:12;7.90;;;3.53;;
62554;SDS011;48610;52.144;8.624;2023-06-26T11:20:15;7.32;;;3.65;;
62554;SDS011;48610;52.144;8.624;2023-06-26T11:23:16;11.73;;;3.83;;
62554;SDS011;48610;52.144;8.624;2023-06-26T11:26:23;6.00;;;3.47;;
62554;SDS011;48610;52.144;8.624;2023-06-26T11:29:24;8.85;;;3.50;;
62554;SDS011;48610;52.144;8.624;2023-06-26T11:32:25;6.45;;;3.20;;
62554;SDS011;48610;52.144;8.624;2023-06-26T11:35:27;12.75;;;3.22;;
62554;SDS011;48610;52.144;8.624;2023-06-26T11:38:36;6.72;;;3.45;;
62554;SDS011;48610;52.144;8.624;2023-06-26T11:41:39;7.70;;;3.60;;
62554;SDS011;48610;52.144;8.624;2023-06-26T11:44:40;9.15;;;3.20;;
62554;SDS011;48610;52.144;8.624;2023-06-26T11:47:42;7.03;;;2.80;;
62554;SDS011;48610;52.144;8.624;2023-06-26T11:50:43;5.22;;;2.80;;
62554;SDS011;48610;52.144;8.624;2023-06-26T11:53:44;6.00;;;3.15;;
62554;SDS011;48610;52.144;8.624;2023-06-26T11:56:51;4.70;;;3.17;;
62554;SDS011;48610;52.144;8.624;2023-06-26T11:59:56;7.65;;;2.95;;
62554;SDS011;48610;52.144;8.624;2023-06-26T12:02:57;4.65;;;2.58;;
62554;SDS011;48610;52.144;8.624;2023-06-26T12:05:58;4.75;;;3.00;;
62554;SDS011;48610;52.144;8.624;2023-06-26T12:09:01;5.15;;;3.20;;
62554;SDS011;48610;52.144;8.624;2023-06-26T12:15:07;4.72;;;2.72;;
62554;SDS011;48610;52.144;8.624;2023-06-26T12:18:08;4.15;;;2.63;;
62554;SDS011;48610;52.144;8.624;2023-06-26T12:21:27;6.22;;;2.97;;
62554;SDS011;48610;52.144;8.624;2023-06-26T12:24:37;6.63;;;2.50;;
62554;SDS011;48610;52.144;8.624;2023-06-26T12:27:38;4.50;;;3.00;;
62554;SDS011;48610;52.144;8.624;2023-06-26T12:30:39;5.13;;;2.92;;
62554;SDS011;48610;52.144;8.624;2023-06-26T12:33:40;4.07;;;2.70;;
62554;SDS011;48610;52.144;8.624;2023-06-26T12:36:41;11.23;;;2.80;;
62554;SDS011;48610;52.144;8.624;2023-06-26T12:39:46;5.05;;;3.05;;
62554;SDS011;48610;52.144;8.624;2023-06-26T12:42:48;4.25;;;3.05;;
62554;SDS011;48610;52.144;8.624;2023-06-26T12:45:48;6.90;;;3.00;;
62554;SDS011;48610;52.144;8.624;2023-06-26T12:48:54;5.35;;;3.00;;
62554;SDS011;48610;52.144;8.624;2023-06-26T12:51:55;4.82;;;2.80;;
62554;SDS011;48610;52.144;8.624;2023-06-26T12:54:55;3.65;;;2.45;;
62554;SDS011;48610;52.144;8.624;2023-06-26T12:57:57;10.30;;;3.40;;
62554;SDS011;48610;52.144;8.624;2023-06-26T13:00:57;6.90;;;3.20;;
62554;SDS011;48610;52.144;8.624;2023-06-26T13:03:58;11.30;;;3.50;;
62554;SDS011;48610;52.144;8.624;2023-06-26T13:06:58;8.35;;;3.00;;
62554;SDS011;48610;52.144;8.624;2023-06-26T13:09:59;3.60;;;2.80;;
62554;SDS011;48610;52.144;8.624;2023-06-26T13:12:59;4.28;;;2.90;;
62554;SDS011;48610;52.144;8.624;2023-06-26T13:16:00;6.35;;;2.80;;
62554;SDS011;48610;52.144;8.624;2023-06-26T13:19:02;6.20;;;3.03;;
62554;SDS011;48610;52.144;8.624;2023-06-26T13:22:02;10.88;;;3.38;;
62554;SDS011;48610;52.144;8.624;2023-06-26T13:25:03;5.50;;;2.95;;
62554;SDS011;48610;52.144;8.624;2023-06-26T13:28:04;7.13;;;2.83;;
62554;SDS011;48610;52.144;8.624;2023-06-26T13:31:04;4.25;;;2.70;;
62554;SDS011;48610;52.144;8.624;2023-06-26T13:34:05;6.63;;;3.10;;
62554;SDS011;48610;52.144;8.624;2023-06-26T13:37:06;3.38;;;2.80;;
62554;SDS011;48610;52.144;8.624;2023-06-26T13:40:06;4.85;;;2.92;;
62554;SDS011;48610;52.144;8.624;2023-06-26T13:43:07;6.30;;;3.13;;
62554;SDS011;48610;52.144;8.624;2023-06-26T13:46:08;11.57;;;2.55;;
62554;SDS011;48610;52.144;8.624;2023-06-26T13:49:08;4.85;;;2.80;;
62554;SDS011;48610;52.144;8.624;2023-06-26T13:52:09;5.22;;;3.13;;
62554;SDS011;48610;52.144;8.624;2023-06-26T13:55:10;8.70;;;3.13;;
62554;SDS011;48610;52.144;8.624;2023-06-26T13:58:10;3.95;;;2.92;;
62554;SDS011;48610;52.144;8.624;2023-06-26T14:01:13;5.60;;;2.67;;
62554;SDS011;48610;52.144;8.624;2023-06-26T14:04:13;6.65;;;3.10;;
62554;SDS011;48610;52.144;8.624;2023-06-26T14:07:14;7.35;;;3.38;;
62554;SDS011;48610;52.144;8.624;2023-06-26T14:10:14;7.68;;;2.80;;
62554;SDS011;48610;52.144;8.624;2023-06-26T14:13:15;9.02;;;2.97;;
62554;SDS011;48610;52.144;8.624;2023-06-26T14:16:16;5.15;;;2.80;;
62554;SDS011;48610;52.144;8.624;2023-06-26T14:19:18;5.45;;;2.90;;
62554;SDS011;48610;52.144;8.624;2023-06-26T14:22:19;4.07;;;2.85;;
62554;SDS011;48610;52.144;8.624;2023-06-26T14:25:20;6.10;;;2.90;;
62554;SDS011;48610;52.144;8.624;2023-06-26T14:28:21;6.93;;;3.17;;
62554;SDS011;48610;52.144;8.624;2023-06-26T14:31:21;5.00;;;3.33;;
62554;SDS011;48610;52.144;8.624;2023-06-26T14:34:22;10.63;;;2.90;;
62554;SDS011;48610;52.144;8.624;2023-06-26T14:37:23;7.75;;;2.72;;
62554;SDS011;48610;52.144;8.624;2023-06-26T14:40:25;4.20;;;2.95;;
62554;SDS011;48610;52.144;8.624;2023-06-26T14:43:26;4.70;;;2.85;;
62554;SDS011;48610;52.144;8.624;2023-06-26T14:46:26;4.68;;;2.40;;
62554;SDS011;48610;52.144;8.624;2023-06-26T14:49:27;7.35;;;2.60;;
62554;SDS011;48610;52.144;8.624;2023-06-26T14:52:27;8.18;;;2.72;;
62554;SDS011;48610;52.144;8.624;2023-06-26T14:55:28;6.00;;;2.47;;
62554;SDS011;48610;52.144;8.624;2023-06-26T14:58:28;4.43;;;2.22;;
62554;SDS011;48610;52.144;8.624;2023-06-26T15:01:29;4.45;;;2.35;;
62554;SDS011;48610;52.144;8.624;2023-06-26T15:04:31;3.53;;;2.13;;
62554;SDS011;48610;52.144;8.624;2023-06-26T15:07:32;7.72;;;2.25;;
62554;SDS011;48610;52.144;8.624;2023-06-26T15:10:33;4.70;;;2.33;;
62554;SDS011;48610;52.144;8.624;2023-06-26T15:13:33;3.90;;;2.00;;
62554;SDS011;48610;52.144;8.624;2023-06-26T15:16:34;4.20;;;2.35;;
62554;SDS011;48610;52.144;8.624;2023-06-26T15:19:35;7.93;;;2.70;;
62554;SDS011;48610;52.144;8.624;2023-06-26T15:22:36;8.23;;;2.60;;
62554;SDS011;48610;52.144;8.624;2023-06-26T15:25:37;9.35;;;2.50;;
62554;SDS011;48610;52.144;8.624;2023-06-26T15:28:37;2.63;;;2.28;;
62554;SDS011;48610;52.144;8.624;2023-06-26T15:31:38;3.65;;;2.15;;
62554;SDS011;48610;52.144;8.624;2023-06-26T15:34:38;5.43;;;2.20;;
62554;SDS011;48610;52.144;8.624;2023-06-26T15:37:39;4.30;;;2.38;;
62554;SDS011;48610;52.144;8.624;2023-06-26T15:40:40;5.28;;;2.55;;
62554;SDS011;48610;52.144;8.624;2023-06-26T15:43:40;10.32;;;4.32;;
62554;SDS011;48610;52.144;8.624;2023-06-26T15:46:43;62.05;;;35.13;;
62554;SDS011;48610;52.144;8.624;2023-06-26T15:49:43;81.85;;;45.55;;
62554;SDS011;48610;52.144;8.624;2023-06-26T15:52:45;25.98;;;12.38;;
62554;SDS011;48610;52.144;8.624;2023-06-26T15:55:46;32.05;;;13.82;;
62554;SDS011;48610;52.144;8.624;2023-06-26T15:58:47;10.18;;;5.18;;
62554;SDS011;48610;52.144;8.624;2023-06-26T16:01:48;8.55;;;4.18;;
62554;SDS011;48610;52.144;8.624;2023-06-26T16:04:50;5.32;;;2.85;;
62554;SDS011;48610;52.144;8.624;2023-06-26T16:07:51;6.85;;;3.13;;
62554;SDS011;48610;52.144;8.624;2023-06-26T16:10:52;2.35;;;1.95;;
62554;SDS011;48610;52.144;8.624;2023-06-26T16:13:53;2.08;;;1.80;;
62554;SDS011;48610;52.144;8.624;2023-06-26T16:16:55;6.07;;;1.85;;
62554;SDS011;48610;52.144;8.624;2023-06-26T16:19:55;3.72;;;2.00;;
62554;SDS011;48610;52.144;8.624;2023-06-26T16:22:56;2.90;;;1.70;;
62554;SDS011;48610;52.144;8.624;2023-06-26T16:25:56;7.38;;;1.85;;
62554;SDS011;48610;52.144;8.624;2023-06-26T16:28:57;3.13;;;1.50;;
62554;SDS011;48610;52.144;8.624;2023-06-26T16:31:57;5.25;;;2.05;;
62554;SDS011;48610;52.144;8.624;2023-06-26T16:35:00;2.67;;;1.95;;
62554;SDS011;48610;52.144;8.624;2023-06-26T16:38:01;3.65;;;1.73;;
62554;SDS011;48610;52.144;8.624;2023-06-26T16:41:02;3.15;;;1.55;;
62554;SDS011;48610;52.144;8.624;2023-06-26T16:44:03;3.17;;;1.70;;
62554;SDS011;48610;52.144;8.624;2023-06-26T16:47:04;5.20;;;1.10;;
62554;SDS011;48610;52.144;8.624;2023-06-26T16:50:05;2.10;;;1.38;;
62554;SDS011;48610;52.144;8.624;2023-06-26T16:53:06;2.40;;;1.52;;
62554;SDS011;48610;52.144;8.624;2023-06-26T16:56:06;5.03;;;1.58;;
62554;SDS011;48610;52.144;8.624;2023-06-26T16:59:07;3.28;;;1.67;;
62554;SDS011;48610;52.144;8.624;2023-06-26T17:02:08;3.38;;;1.63;;
62554;SDS011;48610;52.144;8.624;2023-06-26T17:05:08;6.10;;;2.25;;
62554;SDS011;48610;52.144;8.624;2023-06-26T17:08:10;4.13;;;1.50;;
62554;SDS011;48610;52.144;8.624;2023-06-26T17:11:10;5.72;;;1.67;;
62554;SDS011;48610;52.144;8.624;2023-06-26T17:14:11;3.38;;;1.77;;
62554;SDS011;48610;52.144;8.624;2023-06-26T17:17:12;5.45;;;1.95;;
62554;SDS011;48610;52.144;8.624;2023-06-26T17:20:15;3.17;;;2.10;;
62554;SDS011;48610;52.144;8.624;2023-06-26T17:23:19;4.97;;;2.00;;
62554;SDS011;48610;52.144;8.624;2023-06-26T17:26:19;2.35;;;1.80;;
62554;SDS011;48610;52.144;8.624;2023-06-26T17:29:20;4.95;;;1.67;;
62554;SDS011;48610;52.144;8.624;2023-06-26T17:32:21;3.35;;;1.50;;
62554;SDS011;48610;52.144;8.624;2023-06-26T17:35:22;6.78;;;1.73;;
62554;SDS011;48610;52.144;8.624;2023-06-26T17:38:22;3.65;;;1.63;;
62554;SDS011;48610;52.144;8.624;2023-06-26T17:41:23;4.00;;;1.50;;
62554;SDS011;48610;52.144;8.624;2023-06-26T17:44:24;5.43;;;1.90;;
62554;SDS011;48610;52.144;8.624;2023-06-26T17:47:27;5.50;;;1.60;;
62554;SDS011;48610;52.144;8.624;2023-06-26T17:50:28;9.45;;;2.33;;
62554;SDS011;48610;52.144;8.624;2023-06-26T17:53:30;2.45;;;1.83;;
62554;SDS011;48610;52.144;8.624;2023-06-26T17:56:30;2.95;;;1.88;;
62554;SDS011;48610;52.144;8.624;2023-06-26T17:59:31;3.13;;;2.10;;
62554;SDS011;48610;52.144;8.624;2023-06-26T18:02:31;4.25;;;1.67;;
62554;SDS011;48610;52.144;8.624;2023-06-26T18:05:32;13.88;;;1.63;;
62554;SDS011;48610;52.144;8.624;2023-06-26T18:08:33;5.30;;;1.88;;
62554;SDS011;48610;52.144;8.624;2023-06-26T18:11:34;2.50;;;1.75;;
62554;SDS011;48610;52.144;8.624;2023-06-26T18:14:35;4.53;;;1.80;;
62554;SDS011;48610;52.144;8.624;2023-06-26T18:17:36;6.32;;;2.03;;
62554;SDS011;48610;52.144;8.624;2023-06-26T18:20:36;4.15;;;1.92;;
62554;SDS011;48610;52.144;8.624;2023-06-26T18:23:37;1.85;;;1.45;;
62554;SDS011;48610;52.144;8.624;2023-06-26T18:26:37;5.22;;;2.08;;